Time;durP1;ratioP1;P1;durP2;ratioP2;P2;SDS_P1;SDS_P2;PMS_P1;PMS_P2;Temp;Humidity;BMP_temperature;BMP_pressure;BME280_temperature;BME280_humidity;BME280_pressure;Samples;Min_cycle;Max_cycle;Signal;HPM_P1;HPM_P2
2022/09/28 04:18:57;;;;;;;1.85;1.75;;;;;;;8.40;100.00;99110.63;5555257;32;253723;-89
2022/09/28 04:22:00;;;;;;;4.93;2.12;;;;;;;8.34;100.00;99101.25;5543531;32;32770;-89
2022/09/28 04:25:04;;;;;;;1.87;1.77;;;;;;;8.34;100.00;99106.56;5543756;32;33961;-89
2022/09/28 04:31:35;;;;;;;2.00;1.90;;;;;;;8.38;100.00;99107.22;5544409;32;34328;-93
2022/09/28 04:34:39;;;;;;;2.00;1.73;;;;;;;8.42;100.00;99106.09;5544399;32;33698;-90
2022/09/28 04:37:45;;;;;;;2.67;1.92;;;;;;;8.55;100.00;99114.16;5543865;32;35978;-89
2022/09/28 04:40:48;;;;;;;2.33;1.62;;;;;;;8.47;100.00;99114.59;5543879;32;34134;-87
2022/09/28 04:43:51;;;;;;;1.65;1.55;;;;;;;8.39;100.00;99108.94;5545339;32;34204;-89
2022/09/28 04:46:55;;;;;;;2.45;1.80;;;;;;;8.33;100.00;99121.56;5541774;32;34108;-89
2022/09/28 04:50:06;;;;;;;2.00;1.50;;;;;;;8.36;100.00;99121.38;5544441;32;33826;-89
2022/09/28 04:53:08;;;;;;;1.80;1.70;;;;;;;8.41;100.00;99109.69;5547880;32;35243;-90
2022/09/28 04:56:13;;;;;;;3.72;1.50;;;;;;;8.42;100.00;99104.31;5574381;31;34310;-89
2022/09/28 04:59:16;;;;;;;1.70;1.60;;;;;;;8.47;100.00;99110.16;5578513;31;35263;-89
2022/09/28 05:02:19;;;;;;;3.83;1.80;;;;;;;8.50;100.00;99111.75;5570577;32;35052;-87
2022/09/28 05:05:23;;;;;;;1.40;1.33;;;;;;;8.42;100.00;99106.94;5563135;32;33987;-88
2022/09/28 05:08:29;;;;;;;4.50;1.50;;;;;;;8.53;100.00;99105.47;5563484;32;34620;-88
2022/09/28 05:11:32;;;;;;;1.90;1.60;;;;;;;8.47;100.00;99111.94;5569009;32;33768;-88
2022/09/28 05:14:35;;;;;;;1.55;1.42;;;;;;;8.55;100.00;99122.91;5575725;31;34190;-88
2022/09/28 05:17:38;;;;;;;3.37;1.60;;;;;;;8.54;100.00;99120.41;5548709;32;33418;-87
2022/09/28 05:20:41;;;;;;;1.67;1.58;;;;;;;8.57;100.00;99125.47;5551557;32;34014;-88
2022/09/28 05:23:47;;;;;;;2.12;1.65;;;;;;;8.73;100.00;99125.37;5547440;32;34808;-87
2022/09/28 05:26:49;;;;;;;3.17;1.60;;;;;;;8.60;100.00;99130.59;5544427;32;33957;-87
2022/09/28 05:29:53;;;;;;;2.70;1.65;;;;;;;8.58;100.00;99125.37;5532737;32;34671;-87
2022/09/28 05:32:57;;;;;;;2.00;1.50;;;;;;;8.46;100.00;99126.13;5534753;32;33838;-87
2022/09/28 05:36:00;;;;;;;2.05;1.27;;;;;;;8.60;100.00;99123.50;5527641;32;34172;-87
2022/09/28 05:39:06;;;;;;;1.77;1.52;;;;;;;8.66;100.00;99119.63;5524365;32;34730;-88
2022/09/28 05:42:09;;;;;;;2.75;1.65;;;;;;;8.57;100.00;99122.84;5513529;32;33271;-88
2022/09/28 05:45:12;;;;;;;2.50;1.60;;;;;;;8.58;100.00;99132.47;5523902;32;33916;-88
2022/09/28 05:48:15;;;;;;;4.25;1.67;;;;;;;8.53;100.00;99127.47;5523789;32;34436;-88
2022/09/28 05:51:18;;;;;;;2.70;1.50;;;;;;;8.68;100.00;99135.38;5529539;32;35070;-88
2022/09/28 05:54:21;;;;;;;1.73;1.62;;;;;;;8.60;100.00;99128.78;5522763;32;34481;-89
2022/09/28 05:57:25;;;;;;;2.05;1.55;;;;;;;8.62;100.00;99129.53;5521519;32;32853;-89
2022/09/28 06:00:29;;;;;;;1.55;1.45;;;;;;;8.96;100.00;99128.38;5522556;32;33728;-89
2022/09/28 06:03:32;;;;;;;1.40;1.30;;;;;;;9.65;100.00;99130.19;5534623;32;34219;-85
2022/09/28 06:06:35;;;;;;;7.85;1.50;;;;;;;9.88;100.00;99119.84;5534918;32;35192;-86
2022/09/28 06:09:38;;;;;;;1.70;1.60;;;;;;;10.09;99.33;99118.41;5526733;32;32597;-85
2022/09/28 06:12:41;;;;;;;1.73;1.42;;;;;;;10.01;99.43;99118.06;5531587;32;33449;-86
2022/09/28 06:15:45;;;;;;;3.75;1.80;;;;;;;9.98;99.10;99111.19;5532437;32;33448;-87
2022/09/28 06:18:48;;;;;;;1.70;1.60;;;;;;;10.01;100.00;99117.22;5536660;32;33639;-85
2022/09/28 06:21:52;;;;;;;4.65;1.50;;;;;;;9.87;100.00;99118.16;5523615;32;32407;-86
2022/09/28 06:24:55;;;;;;;3.17;1.80;;;;;;;9.76;100.00;99118.88;5520079;32;35612;-85
2022/09/28 06:28:01;;;;;;;1.62;1.30;;;;;;;9.92;99.39;99111.56;5528923;32;32718;-85
2022/09/28 06:31:04;;;;;;;2.42;1.55;;;;;;;9.84;100.00;99120.06;5511962;32;32526;-89
2022/09/28 06:34:10;;;;;;;2.60;1.50;;;;;;;9.92;100.00;99110.75;5515974;32;34687;-89
2022/09/28 06:37:12;;;;;;;2.05;1.50;;;;;;;9.97;100.00;99120.06;5517508;32;34073;-85
2022/09/28 06:40:16;;;;;;;3.25;1.40;;;;;;;10.25;98.39;99130.59;5525475;32;34291;-85
2022/09/28 06:43:19;;;;;;;3.65;1.00;;;;;;;11.12;93.53;99118.44;5532491;32;34576;-85
2022/09/28 06:46:24;;;;;;;2.83;1.67;;;;;;;11.77;87.66;99120.81;5513441;32;32659;-85
2022/09/28 06:49:29;;;;;;;1.90;1.30;;;;;;;11.97;87.88;99112.19;5521037;32;35060;-85
2022/09/28 06:52:34;;;;;;;1.42;1.33;;;;;;;12.08;86.33;99121.19;5534141;32;34002;-86
2022/09/28 06:55:39;;;;;;;3.25;1.12;;;;;;;11.85;87.60;99129.91;5530887;32;33795;-86
2022/09/28 06:58:42;;;;;;;1.55;1.40;;;;;;;11.83;88.40;99131.81;5529862;32;34489;-85
2022/09/28 07:01:45;;;;;;;1.30;1.10;;;;;;;12.07;87.76;99136.28;5527938;32;34080;-88
2022/09/28 07:04:51;;;;;;;2.85;1.60;;;;;;;11.85;89.46;99135.22;5523808;32;33764;-85
2022/09/28 07:08:00;;;;;;;4.80;1.40;;;;;;;12.26;87.05;99134.88;5512467;32;34023;-86
2022/09/28 07:11:10;;;;;;;3.22;1.50;;;;;;;11.99;88.34;99133.34;5524194;32;34038;-86
2022/09/28 07:14:13;;;;;;;1.77;1.40;;;;;;;12.20;86.04;99135.34;5521890;32;34376;-86
2022/09/28 07:17:36;;;;;;;1.87;1.60;;;;;;;12.44;82.26;99137.94;5514680;32;34299;-86
2022/09/28 07:20:57;;;;;;;1.57;1.47;;;;;;;12.81;81.59;99131.53;5510700;32;32336;-86
2022/09/28 07:24:00;;;;;;;1.17;1.02;;;;;;;12.88;80.79;99130.06;5516989;32;34171;-86
2022/09/28 07:27:07;;;;;;;2.65;1.70;;;;;;;13.32;75.98;99127.47;5514816;32;33612;-85
2022/09/28 07:30:10;;;;;;;3.72;1.48;;;;;;;13.68;77.85;99123.78;5514940;32;32639;-85
2022/09/28 07:33:16;;;;;;;2.70;1.40;;;;;;;14.31;71.65;99125.63;5511010;32;34599;-86
2022/09/28 07:36:19;;;;;;;2.00;1.10;;;;;;;15.06;69.99;99128.09;5509408;32;32857;-87
2022/09/28 07:39:23;;;;;;;2.28;1.20;;;;;;;15.70;64.60;99121.59;5509926;32;33689;-87
2022/09/28 07:42:28;;;;;;;2.50;1.12;;;;;;;15.80;60.50;99125.09;5509190;32;34797;-87
2022/09/28 07:45:34;;;;;;;3.95;1.10;;;;;;;17.83;58.73;99122.88;5509760;32;35762;-89
2022/09/28 07:48:39;;;;;;;4.12;1.30;;;;;;;18.84;50.29;99120.72;5508868;32;33479;-89
2022/09/28 07:51:43;;;;;;;2.25;1.48;;;;;;;19.06;50.11;99110.41;5511128;32;33950;-91
2022/09/28 07:54:50;;;;;;;1.92;1.60;;;;;;;19.38;52.76;99118.75;5508878;32;32958;-88
2022/09/28 07:57:58;;;;;;;5.50;1.80;;;;;;;20.85;49.03;99125.25;5509171;32;34763;-86
2022/09/28 08:01:04;;;;;;;3.85;1.40;;;;;;;23.88;39.48;99118.31;5507882;32;32629;-85
2022/09/28 08:04:07;;;;;;;5.87;1.55;;;;;;;26.15;35.16;99120.62;5510461;32;34777;-84
2022/09/28 08:07:10;;;;;;;2.20;1.40;;;;;;;27.20;31.74;99120.03;5509470;32;33464;-85
2022/09/28 08:10:14;;;;;;;5.60;1.95;;;;;;;29.99;27.45;99113.22;5511031;32;33645;-85
2022/09/28 08:13:18;;;;;;;4.32;1.90;;;;;;;30.37;25.83;99109.22;5510958;32;34097;-86
2022/09/28 08:16:26;;;;;;;4.15;1.87;;;;;;;31.26;25.43;99116.59;5509715;32;34504;-86
2022/09/28 08:22:52;;;;;;;4.10;1.77;;;;;;;29.41;28.49;99112.81;5509645;32;32812;-85
2022/09/28 08:25:55;;;;;;;5.22;1.67;;;;;;;25.78;35.87;99102.03;5511037;32;34095;-85
2022/09/28 08:29:00;;;;;;;2.50;1.65;;;;;;;27.29;31.88;99097.78;5509735;32;33476;-85
2022/09/28 08:32:07;;;;;;;1.50;1.40;;;;;;;26.36;35.18;99084.25;5521902;32;33889;-84
2022/09/28 08:35:11;;;;;;;9.15;1.50;;;;;;;25.20;35.64;99087.06;5525827;32;33853;-85
2022/09/28 08:38:14;;;;;;;7.03;1.70;;;;;;;23.22;40.74;99075.97;5527331;32;34238;-86
2022/09/28 08:41:48;;;;;;;2.90;1.70;;;;;;;22.06;44.74;99062.78;5524765;32;34049;-84
2022/09/28 08:44:59;;;;;;;3.33;1.87;;;;;;;21.53;45.69;99065.41;5522520;32;34698;-84
2022/09/28 08:51:39;;;;;;;1.70;1.40;;;;;;;21.24;47.14;99085.81;5534349;32;34095;-85
2022/09/28 08:54:47;;;;;;;2.37;1.45;;;;;;;20.48;49.32;99092.53;5537771;32;32397;-85
2022/09/28 08:58:01;;;;;;;5.22;2.12;;;;;;;19.85;52.53;99097.59;5518810;32;33675;-84
2022/09/28 09:01:15;;;;;;;5.45;1.65;;;;;;;19.42;53.85;99087.84;5520761;32;34954;-84
2022/09/28 09:04:18;;;;;;;2.30;1.40;;;;;;;19.80;53.67;99095.44;5516271;32;34010;-84
2022/09/28 09:07:39;;;;;;;3.10;1.50;;;;;;;19.87;51.63;99085.66;5518141;32;34108;-85
2022/09/28 09:10:57;;;;;;;3.03;1.60;;;;;;;19.89;50.28;99078.28;5519461;32;34886;-85
2022/09/28 09:14:51;;;;;;;4.90;1.70;;;;;;;19.58;55.02;99072.72;5533829;32;34914;-85
2022/09/28 09:18:06;;;;;;;2.42;1.37;;;;;;;19.24;53.85;99088.81;5513349;32;33620;-85
2022/09/28 09:21:26;;;;;;;2.67;1.50;;;;;;;18.59;56.76;99085.69;5541258;32;34539;-86
2022/09/28 09:24:48;;;;;;;1.60;1.20;;;;;;;19.01;53.62;99090.41;5522177;32;32712;-90
2022/09/28 09:28:20;;;;;;;3.03;1.50;;;;;;;18.65;54.58;99092.25;5511879;32;33740;-85
2022/09/28 09:31:58;;;;;;;3.70;1.65;;;;;;;18.71;55.55;99086.25;5520643;32;34473;-84
2022/09/28 09:35:45;;;;;;;1.80;1.40;;;;;;;19.18;54.10;99085.94;5534105;32;34351;-85
2022/09/28 09:39:27;;;;;;;1.98;1.65;;;;;;;19.25;56.37;99082.44;5532176;32;33903;-84
2022/09/28 09:43:00;;;;;;;4.12;1.87;;;;;;;18.64;53.21;99076.28;5514635;32;34057;-87
2022/09/28 09:46:27;;;;;;;1.48;1.37;;;;;;;18.98;54.32;99076.28;5514480;32;34144;-86
2022/09/28 09:49:43;;;;;;;2.00;1.67;;;;;;;19.94;51.01;99069.69;5519885;32;34397;-85
2022/09/28 09:53:07;;;;;;;4.05;2.00;;;;;;;18.62;54.32;99079.16;5534104;32;33074;-85
2022/09/28 09:56:23;;;;;;;3.00;2.10;;;;;;;18.43;55.07;99082.91;5518590;32;33286;-84
2022/09/28 09:59:33;;;;;;;3.12;2.35;;;;;;;19.66;52.20;99080.78;5515034;32;34804;-84
2022/09/28 10:02:38;;;;;;;3.03;1.90;;;;;;;19.22;52.38;99087.28;5517967;32;32553;-85
2022/09/28 10:05:47;;;;;;;1.98;1.62;;;;;;;19.13;52.68;99076.50;5514788;32;34191;-85
2022/09/28 10:09:05;;;;;;;1.90;1.23;;;;;;;19.08;52.78;99089.62;5515662;32;33889;-85
2022/09/28 10:12:11;;;;;;;3.95;1.60;;;;;;;18.34;54.02;99084.69;5516713;32;32640;-85
2022/09/28 10:15:34;;;;;;;3.50;1.62;;;;;;;17.97;54.40;99081.25;5513048;32;34023;-89
2022/09/28 10:18:39;;;;;;;5.37;1.50;;;;;;;18.41;53.72;99083.06;5521309;32;33991;-85
2022/09/28 10:21:49;;;;;;;3.42;1.67;;;;;;;18.89;52.87;99081.78;5524671;32;31560;-85
2022/09/28 10:24:56;;;;;;;2.15;1.52;;;;;;;19.31;52.53;99091.66;5529340;32;33331;-85
2022/09/28 10:28:00;;;;;;;2.78;1.30;;;;;;;18.56;55.31;99087.88;5519211;32;33523;-84
2022/09/28 10:31:42;;;;;;;3.72;1.50;;;;;;;18.75;54.18;99086.75;5532091;32;34194;-85
2022/09/28 10:34:44;;;;;;;2.15;1.40;;;;;;;19.60;52.49;99081.44;5525925;32;34569;-84
2022/09/28 10:38:03;;;;;;;2.15;1.40;;;;;;;19.11;54.67;99083.06;5512855;32;32784;-82
2022/09/28 10:41:12;;;;;;;2.75;1.48;;;;;;;18.09;57.57;99083.72;5515008;32;34309;-84
2022/09/28 10:44:18;;;;;;;2.22;1.70;;;;;;;17.80;56.57;99091.00;5516459;32;34122;-84
2022/09/28 10:47:26;;;;;;;1.60;1.50;;;;;;;18.08;56.54;99082.88;5521556;32;33966;-84
2022/09/28 10:50:29;;;;;;;1.65;1.42;;;;;;;17.05;58.97;99084.09;5520488;32;34348;-84
2022/09/28 10:53:35;;;;;;;1.67;1.52;;;;;;;17.51;60.31;99079.53;5526852;32;32767;-84
2022/09/28 10:56:40;;;;;;;2.15;1.45;;;;;;;19.80;52.23;99080.13;5532914;32;34694;-85
2022/09/28 10:59:45;;;;;;;3.05;1.40;;;;;;;20.16;49.13;99072.75;5530466;32;33737;-85
2022/09/28 11:02:51;;;;;;;2.42;1.50;;;;;;;19.99;49.70;99072.75;5519446;32;32735;-87
2022/09/28 11:06:06;;;;;;;1.62;1.50;;;;;;;18.85;52.29;99067.81;5528416;32;34085;-87
2022/09/28 11:09:27;;;;;;;2.03;1.35;;;;;;;18.54;53.34;99074.59;5518753;32;32836;-91
2022/09/28 11:12:42;;;;;;;2.87;1.98;;;;;;;18.07;54.99;99067.78;5526799;32;33721;-86
2022/09/28 11:15:45;;;;;;;1.98;1.70;;;;;;;17.48;58.06;99066.44;5521653;32;34340;-87
2022/09/28 11:42:07;;;;;;;5.68;2.87;;;;;;;17.40;61.36;99036.84;2338271;26;20102;-88
2022/09/28 11:49:00;;;;;;;;;;;;;;;18.04;58.83;99044.75;5590683;26;32612;-87
2022/09/28 11:52:13;;;;;;;3.42;2.25;;;;;;;17.57;59.82;99037.88;5560178;32;34268;-88
2022/09/28 11:59:12;;;;;;;3.92;2.50;;;;;;;17.35;59.37;99036.50;845647;29;20437;-88
2022/09/28 12:02:30;;;;;;;3.35;2.20;;;;;;;17.41;60.28;99027.84;5560032;31;32528;-88
2022/09/28 12:05:43;;;;;;;3.22;2.60;;;;;;;17.56;59.42;99012.06;5556915;32;33006;-89
2022/09/28 12:12:38;;;;;;;2.35;2.10;;;;;;;17.65;56.81;99010.25;5579087;31;33770;-89
2022/09/28 12:15:48;;;;;;;2.53;1.70;;;;;;;17.22;58.17;99010.06;5582209;31;33864;-89
2022/09/28 12:57:35;;;;;;;4.68;1.40;;;;;;;16.74;60.99;98971.91;5523682;32;32252;-89
2022/09/28 13:00:55;;;;;;;5.37;1.20;;;;;;;16.37;61.49;98965.63;5528854;32;33756;-88
2022/09/28 13:03:58;;;;;;;0.90;0.90;;;;;;;16.27;62.34;98969.19;5552659;26;34326;-89
2022/09/28 13:07:03;;;;;;;1.25;1.10;;;;;;;16.51;59.63;98970.50;5530543;32;33907;-88
2022/09/28 13:10:32;;;;;;;2.22;1.00;;;;;;;16.43;59.21;98973.03;5514623;32;34659;-89
2022/09/28 13:14:03;;;;;;;2.05;0.88;;;;;;;16.56;58.84;98967.34;5515979;32;34253;-88
2022/09/28 13:17:24;;;;;;;;;;;;;;;16.49;58.81;98967.09;5520809;32;32315;-88
2022/09/28 13:21:05;;;;;;;0.70;0.70;;;;;;;16.29;60.42;98969.88;5530356;32;34092;-88
2022/09/28 13:24:13;;;;;;;1.85;0.93;;;;;;;16.53;59.21;98962.28;5527725;32;34148;-87
2022/09/28 13:27:39;;;;;;;0.70;0.70;;;;;;;16.53;60.05;98960.47;5498944;32;33177;-87
2022/09/28 13:30:43;;;;;;;1.67;0.82;;;;;;;16.73;59.57;98956.84;5519989;32;33710;-87
2022/09/28 13:33:48;;;;;;;2.62;1.05;;;;;;;16.61;59.20;98965.06;5508750;32;33219;-87
2022/09/28 13:37:19;;;;;;;1.58;0.82;;;;;;;16.25;59.56;98970.34;5521175;32;33978;-87
2022/09/28 13:40:59;;;;;;;2.40;0.88;;;;;;;16.04;60.32;98955.34;5519303;32;34638;-86
2022/09/28 13:44:11;;;;;;;;;;;;;;;16.22;59.50;98955.41;5526388;32;33994;-86
2022/09/28 13:47:56;;;;;;;2.30;1.05;;;;;;;16.34;59.99;98958.72;5512217;32;34323;-86
2022/09/28 13:51:25;;;;;;;0.80;0.73;;;;;;;16.54;58.30;98956.78;5483374;32;33033;-87
2022/09/28 13:54:39;;;;;;;1.60;1.02;;;;;;;16.68;58.05;98950.09;5518302;32;34198;-86
2022/09/28 13:57:50;;;;;;;1.23;0.98;;;;;;;16.58;57.62;98951.97;5528276;32;34977;-87
2022/09/28 14:01:05;;;;;;;0.88;0.80;;;;;;;16.46;57.60;98959.38;5512534;32;32581;-87
2022/09/28 14:04:17;;;;;;;2.75;0.90;;;;;;;16.32;58.37;98957.19;5512687;32;33280;-86
2022/09/28 14:07:43;;;;;;;4.57;1.10;;;;;;;16.36;58.26;98962.13;5508210;32;33015;-86
2022/09/28 14:10:52;;;;;;;1.25;1.00;;;;;;;16.53;58.06;98946.22;5504336;32;33945;-86
2022/09/28 14:14:07;;;;;;;1.02;0.93;;;;;;;16.64;57.15;98950.56;5510428;32;34650;-86
2022/09/28 14:17:24;;;;;;;2.33;0.88;;;;;;;16.81;57.11;98948.87;5517477;32;33802;-86
2022/09/28 14:20:30;;;;;;;1.37;0.80;;;;;;;16.98;56.87;98956.09;5523042;32;34327;-90
2022/09/28 14:23:51;;;;;;;3.83;0.90;;;;;;;16.90;54.74;98949.81;5517737;32;33807;-86
2022/09/28 14:27:04;;;;;;;1.20;0.77;;;;;;;16.78;55.45;98947.34;5498025;32;33667;-86
2022/09/28 14:30:10;;;;;;;1.70;0.55;;;;;;;16.86;55.32;98949.28;5510138;32;33686;-86
2022/09/28 14:33:19;;;;;;;4.37;1.08;;;;;;;16.88;55.17;98941.06;5509608;32;34035;-86
2022/09/28 14:43:23;;;;;;;3.05;0.90;;;;;;;16.97;55.25;98946.38;5502482;32;32393;-88
2022/09/28 14:46:29;;;;;;;5.12;1.10;;;;;;;16.90;54.12;98941.78;5523066;32;33648;-86
2022/09/28 14:49:35;;;;;;;1.55;1.00;;;;;;;16.96;54.60;98939.31;5516564;32;34651;-85
2022/09/28 14:52:42;;;;;;;1.20;0.80;;;;;;;16.76;55.40;98935.94;5509671;32;34301;-85
2022/09/28 14:55:54;;;;;;;1.42;1.05;;;;;;;16.65;55.62;98926.28;5511673;32;32391;-85
2022/09/28 14:58:57;;;;;;;2.85;0.98;;;;;;;16.59;56.48;98931.41;5513492;32;33701;-85
2022/09/28 15:02:09;;;;;;;5.07;0.98;;;;;;;16.49;57.74;98924.28;5516748;32;35092;-86
2022/09/28 15:05:29;;;;;;;0.82;0.80;;;;;;;16.65;57.47;98936.16;5522273;32;34209;-90
2022/09/28 15:08:38;;;;;;;1.08;0.93;;;;;;;16.63;57.32;98924.75;5516731;32;32627;-87
2022/09/28 15:11:41;;;;;;;1.58;0.98;;;;;;;16.74;57.39;98929.88;5519394;32;34469;-86
2022/09/28 15:15:07;;;;;;;0.80;0.80;;;;;;;16.66;57.67;98936.03;5512197;32;32440;-87
2022/09/28 15:18:41;;;;;;;1.02;0.85;;;;;;;16.47;58.30;98920.06;5515707;32;33957;-86
2022/09/28 15:21:46;;;;;;;2.25;1.00;;;;;;;16.37;58.74;98920.97;5516444;32;35261;-86
2022/09/28 15:25:12;;;;;;;3.20;0.98;;;;;;;16.15;60.23;98917.69;5509646;32;34545;-87
2022/09/28 15:28:22;;;;;;;1.98;0.82;;;;;;;16.13;59.86;98925.03;5495374;32;32750;-87
